Terminal Aerodrome Forecast
Issued by NWS

Home | Current Version | Previous Version | Text Only | Print | Product List | Glossary On
Versions: 1 2 3 4 5 6 7 8 9 10 11 12 13 14 15 16 17
656
FTUS43 KMPX 130527
TAFRWF
TAF
KRWF 130527Z 1306/1406 21009KT P6SM SCT100
     FM130700 25008KT P6SM BKN200
     FM131000 30012G18KT P6SM OVC070
     FM131200 31014G24KT P6SM OVC020
     FM131500 32020G29KT P6SM OVC015
     FM140100 33011G17KT P6SM OVC025=

USA.gov is the U.S. government's official web portal to all federal, state and local government web resources and services.